Weather at Bollards Lagoon Airport

Public forecast

Using degrees Celsius for public forecast. Weather courtesy of forecast.io.

Closest aviation weather report (METAR) to Bollards Lagoon Airport

Report is more than 6 hours old.

Closest report is Leigh Creek Airport, 159.6 nm (295.6 km) SW. Retrieved 2022/05/26 02:28 UTC (1 day ago):

YLEC 260228Z AUTO 18011KT 9999 // BKN016 16/11 Q1018

Closest aviation forecast (TAF) to Bollards Lagoon Airport

Forecast is more than 6 hours old.

Closest forecast is Woomera Airfield, 246.8 nm (457.1 km) WSW. Retrieved 2022/05/27 06:00 UTC (6 hours ago):

TAF YPWR 270537Z 2706/2800 19006KT 9999 SCT030 FM270900 23007KT CAVOK